Terminal Aerodrome Forecast
Issued by NWS Boston, MA

Current Version | Previous Version | Text Only | Print | Product List | Glossary On
Versions: 1 2 3 4 5 6 7 8 9 10 11 12 13 14 15 16 17 18 19 20 21 22 23 24 25 26 27 28 29 30 31 32 33 34 35 36 37 38 39 40 41 42 43 44 45 46 47
000
FTUS41 KBOX 141125
TAFBOS
TAF
KBOS 141125Z 1412/1518 20009KT P6SM SCT012 OVC020
     FM141500 VRB03KT P6SM BKN025
     FM141800 21009KT P6SM BKN050
     FM150000 20005KT P6SM BKN025
     FM150400 19008KT 3SM -SHRA BR OVC025
     FM150900 19010KT 3SM BR OVC008
     FM151600 20011KT P6SM OVC015=

USA.gov is the U.S. government's official web portal to all federal, state and local government web resources and services.